createdAt,value
2023-05-24T00:00:33.027Z,5.10
2023-05-24T00:03:21.973Z,4.90
2023-05-24T00:05:50.611Z,5.20
2023-05-24T00:08:18.926Z,4.70
2023-05-24T00:10:47.256Z,4.70
2023-05-24T00:15:44.281Z,4.90
2023-05-24T00:18:12.606Z,4.90
2023-05-24T00:20:40.958Z,5.00
2023-05-24T00:23:09.848Z,4.50
2023-05-24T00:28:06.096Z,5.10
2023-05-24T00:30:34.203Z,4.20
2023-05-24T00:33:02.490Z,4.90
2023-05-24T00:35:31.861Z,4.60
2023-05-24T00:38:00.096Z,4.70
2023-05-24T00:40:28.397Z,5.10
2023-05-24T00:42:56.613Z,5.30
2023-05-24T00:47:53.291Z,5.40
2023-05-24T00:50:22.143Z,4.80
2023-05-24T00:52:51.678Z,4.90
2023-05-24T00:55:21.006Z,5.00
2023-05-24T00:57:52.433Z,5.20
2023-05-24T01:00:21.288Z,5.10
2023-05-24T01:02:51.512Z,5.10
2023-05-24T01:05:20.132Z,4.90
2023-05-24T01:08:00.137Z,4.90
2023-05-24T01:10:52.501Z,4.10
2023-05-24T01:13:45.024Z,4.70
2023-05-24T01:16:48.258Z,4.80
2023-05-24T01:20:02.769Z,4.90
2023-05-24T01:22:59.353Z,5.10
2023-05-24T01:26:05.305Z,4.90
2023-05-24T01:28:35.591Z,4.40
2023-05-24T01:31:04.584Z,5.20
2023-05-24T01:33:33.584Z,6.00
2023-05-24T01:36:01.700Z,6.30
2023-05-24T01:38:29.817Z,4.90
2023-05-24T01:41:05.964Z,5.00
2023-05-24T01:43:43.557Z,4.90
2023-05-24T01:46:35.459Z,4.80
2023-05-24T01:49:13.176Z,5.20
2023-05-24T01:51:57.401Z,4.10
2023-05-24T01:54:28.530Z,4.70
2023-05-24T01:56:58.952Z,4.90
2023-05-24T01:59:30.350Z,5.20
2023-05-24T02:01:58.669Z,5.10
2023-05-24T02:04:26.980Z,5.30
2023-05-24T02:06:55.205Z,4.40
2023-05-24T02:09:23.331Z,5.00
2023-05-24T02:11:51.553Z,5.10
2023-05-24T02:14:20.160Z,5.10
2023-05-24T02:16:50.908Z,5.00
2023-05-24T02:19:20.317Z,5.20
2023-05-24T02:21:48.644Z,4.70
2023-05-24T02:24:16.805Z,5.30
2023-05-24T02:26:45.478Z,5.00
2023-05-24T02:31:42.562Z,4.70
2023-05-24T02:34:10.740Z,5.70
2023-05-24T02:36:38.872Z,5.00
2023-05-24T02:39:07.998Z,5.00
2023-05-24T02:41:36.326Z,4.90
2023-05-24T02:44:04.831Z,5.50
2023-05-24T02:46:33.408Z,5.40
2023-05-24T02:49:01.670Z,5.60
2023-05-24T02:51:29.828Z,5.40
2023-05-24T02:53:58.824Z,5.00
2023-05-24T02:56:27.349Z,6.20
2023-05-24T02:58:56.691Z,6.00
2023-05-24T03:01:25.052Z,5.90
2023-05-24T03:03:54.452Z,6.00
2023-05-24T03:06:23.427Z,6.20
2023-05-24T03:08:52.851Z,6.30
2023-05-24T03:11:22.435Z,6.10
2023-05-24T03:13:50.902Z,6.30
2023-05-24T03:18:51.138Z,6.40
2023-05-24T03:21:21.179Z,6.60
2023-05-24T03:23:50.203Z,6.30
2023-05-24T03:26:20.780Z,6.80
2023-05-24T03:28:50.772Z,6.30
2023-05-24T03:31:21.300Z,6.80
2023-05-24T03:33:50.106Z,6.30
2023-05-24T03:36:18.326Z,6.90
2023-05-24T03:38:46.450Z,6.80
2023-05-24T03:41:14.569Z,7.20
2023-05-24T03:43:43.700Z,7.50
2023-05-24T03:46:16.785Z,6.50
2023-05-24T03:48:45.756Z,5.60
2023-05-24T03:53:41.986Z,11.00
2023-05-24T03:56:10.917Z,5.50
2023-05-24T03:58:39.037Z,6.10
2023-05-24T04:03:36.522Z,8.40
2023-05-24T04:06:05.722Z,5.70
2023-05-24T04:08:33.919Z,5.90
2023-05-24T04:11:02.242Z,6.30
2023-05-24T04:13:31.465Z,6.60
2023-05-24T04:15:59.688Z,6.70
2023-05-24T04:18:27.788Z,7.30
2023-05-24T04:23:24.645Z,5.10
2023-05-24T04:25:52.869Z,5.90
2023-05-24T04:28:22.392Z,4.80
2023-05-24T04:30:51.921Z,5.80
2023-05-24T04:33:20.259Z,5.10
2023-05-24T04:35:48.563Z,4.80
2023-05-24T04:38:16.779Z,6.00
2023-05-24T04:40:45.233Z,5.10
2023-05-24T04:43:13.525Z,5.30
2023-05-24T04:45:42.045Z,4.90
2023-05-24T04:48:10.265Z,4.60
2023-05-24T04:50:38.386Z,6.00
2023-05-24T04:53:06.504Z,4.70
2023-05-24T04:55:34.621Z,4.10
2023-05-24T04:58:02.843Z,4.10
2023-05-24T05:00:30.965Z,3.70
2023-05-24T05:02:59.362Z,3.90
2023-05-24T05:05:27.708Z,5.70
2023-05-24T05:07:55.925Z,3.80
2023-05-24T05:10:24.463Z,4.10
2023-05-24T05:12:52.671Z,5.30
2023-05-24T05:15:24.647Z,3.90
2023-05-24T05:17:52.902Z,4.00
2023-05-24T05:22:50.084Z,4.50
2023-05-24T05:25:18.414Z,4.20
2023-05-24T05:30:15.337Z,3.60
2023-05-24T05:32:43.562Z,5.00
2023-05-24T05:37:39.791Z,3.60
2023-05-24T05:40:08.504Z,4.30
2023-05-24T05:42:36.633Z,3.40
2023-05-24T05:45:05.277Z,3.90
2023-05-24T05:47:33.485Z,3.50
2023-05-24T05:50:01.734Z,3.70
2023-05-24T05:52:29.823Z,3.80
2023-05-24T05:54:59.437Z,4.00
2023-05-24T05:57:27.560Z,3.90
2023-05-24T05:59:55.974Z,4.20
2023-05-24T06:02:24.257Z,4.20
2023-05-24T06:04:52.866Z,3.70
2023-05-24T06:07:21.342Z,5.50
2023-05-24T06:12:17.599Z,4.90
2023-05-24T06:14:48.443Z,4.50
2023-05-24T06:17:17.333Z,3.50
2023-05-24T06:19:45.964Z,4.30
2023-05-24T06:22:14.078Z,3.90
2023-05-24T06:24:42.292Z,3.80
2023-05-24T06:27:10.511Z,3.90
2023-05-24T06:29:38.686Z,4.00
2023-05-24T06:34:34.980Z,4.70
2023-05-24T06:51:38.970Z,3.30
2023-05-24T06:56:35.189Z,3.20
2023-05-24T06:59:03.620Z,3.20
2023-05-24T07:04:00.112Z,3.20
2023-05-24T07:08:56.290Z,3.80
2023-05-24T07:11:24.750Z,2.80
2023-05-24T07:13:53.031Z,2.50
2023-05-24T07:18:49.482Z,2.70
2023-05-24T07:23:45.810Z,3.10
2023-05-24T07:26:14.030Z,3.40
2023-05-24T07:31:10.772Z,3.00
2023-05-24T07:33:39.554Z,2.60
2023-05-24T07:36:08.969Z,2.70
2023-05-24T07:38:37.154Z,2.30
2023-05-24T07:43:35.196Z,3.10
2023-05-24T07:46:03.868Z,3.90
2023-05-24T07:48:32.430Z,2.50
2023-05-24T07:51:01.051Z,2.10
2023-05-24T07:53:29.980Z,2.60
2023-05-24T07:55:58.101Z,2.40
2023-05-24T07:58:26.514Z,3.10
2023-05-24T08:00:54.636Z,2.20
2023-05-24T08:03:26.311Z,4.70
2023-05-24T08:05:54.703Z,2.70
2023-05-24T08:10:50.929Z,2.90
2023-05-24T08:15:47.267Z,2.90
2023-05-24T08:20:43.623Z,3.20
2023-05-24T08:23:11.838Z,3.90
2023-05-24T08:28:11.313Z,3.10
2023-05-24T08:30:40.300Z,2.70
2023-05-24T08:33:08.489Z,2.70
2023-05-24T08:38:04.563Z,2.20
2023-05-24T08:40:32.780Z,1.90
2023-05-24T08:45:31.776Z,2.50
2023-05-24T08:48:00.389Z,2.90
2023-05-24T08:50:30.316Z,2.00
2023-05-24T08:52:59.604Z,2.10
2023-05-24T08:55:30.506Z,2.00
2023-05-24T08:58:00.969Z,1.50
2023-05-24T09:00:29.213Z,1.80
2023-05-24T09:02:59.385Z,2.70
2023-05-24T09:05:29.251Z,2.00
2023-05-24T09:08:01.310Z,1.90
2023-05-24T09:10:44.853Z,2.00
2023-05-24T09:13:21.898Z,2.00
2023-05-24T09:15:50.272Z,1.80
2023-05-24T09:18:18.683Z,2.10
2023-05-24T09:20:47.293Z,1.90
2023-05-24T09:23:16.338Z,1.90
2023-05-24T09:25:46.329Z,1.80
2023-05-24T09:28:17.765Z,1.90
2023-05-24T09:30:57.830Z,2.20
2023-05-24T09:33:30.991Z,2.00
2023-05-24T09:36:01.168Z,1.90
2023-05-24T09:38:29.989Z,1.80
2023-05-24T09:41:06.821Z,1.80
2023-05-24T09:43:46.921Z,1.90
2023-05-24T09:46:22.429Z,1.90
2023-05-24T09:49:03.849Z,1.80
2023-05-24T09:51:32.979Z,1.90
2023-05-24T09:54:02.368Z,1.80
2023-05-24T09:56:33.133Z,1.80
2023-05-24T09:59:08.857Z,1.80
2023-05-24T10:01:38.639Z,1.80
2023-05-24T10:04:09.928Z,2.00
2023-05-24T10:06:43.094Z,1.40
2023-05-24T10:09:11.857Z,1.60
2023-05-24T10:11:41.674Z,1.80
2023-05-24T10:14:10.513Z,2.10
2023-05-24T10:16:39.270Z,1.80
2023-05-24T10:19:07.622Z,2.00
2023-05-24T10:21:42.933Z,1.80
2023-05-24T10:24:14.297Z,1.80
2023-05-24T10:26:43.149Z,1.30
2023-05-24T10:29:23.112Z,1.70
2023-05-24T10:31:53.539Z,1.90
2023-05-24T10:34:22.154Z,1.60
2023-05-24T10:36:50.711Z,1.90
2023-05-24T10:39:22.897Z,2.00
2023-05-24T10:41:51.239Z,1.90
2023-05-24T10:44:21.290Z,1.80
2023-05-24T10:47:22.226Z,2.00
2023-05-24T10:49:53.229Z,1.90
2023-05-24T10:52:21.655Z,1.90
2023-05-24T10:55:05.545Z,2.00
2023-05-24T10:57:35.552Z,2.20
2023-05-24T11:03:02.478Z,1.90
2023-05-24T11:05:46.947Z,2.30
2023-05-24T11:08:26.164Z,2.60
2023-05-24T11:11:22.359Z,2.60
2023-05-24T11:13:58.124Z,2.70
2023-05-24T11:16:39.575Z,2.90
2023-05-24T11:19:17.385Z,2.90
2023-05-24T11:21:47.894Z,3.30
2023-05-24T11:24:20.466Z,4.10
2023-05-24T11:26:50.829Z,3.90
2023-05-24T11:29:22.931Z,4.50
2023-05-24T11:32:05.777Z,4.50
2023-05-24T11:34:34.649Z,4.40
2023-05-24T11:37:06.265Z,5.00
2023-05-24T11:39:36.772Z,5.50
2023-05-24T11:42:06.682Z,4.70
2023-05-24T11:44:39.572Z,3.80
2023-05-24T11:47:08.947Z,4.60
2023-05-24T11:49:37.108Z,4.50
2023-05-24T11:54:35.072Z,5.10
2023-05-24T11:57:04.084Z,5.30
2023-05-24T11:59:32.497Z,4.50
2023-05-24T12:02:02.909Z,4.70
2023-05-24T12:04:32.742Z,4.10
2023-05-24T12:07:01.889Z,3.20
2023-05-24T12:09:30.297Z,2.70
2023-05-24T12:11:58.846Z,3.40
2023-05-24T12:14:31.551Z,3.50
2023-05-24T12:17:01.265Z,2.90
2023-05-24T12:19:36.843Z,3.40
2023-05-24T12:22:07.406Z,3.70
2023-05-24T12:24:37.403Z,3.40
2023-05-24T12:27:10.270Z,3.00
2023-05-24T12:29:41.688Z,2.40
2023-05-24T12:32:15.547Z,2.60
2023-05-24T12:34:45.348Z,2.70
2023-05-24T12:37:15.466Z,2.10
2023-05-24T12:39:44.705Z,2.40
2023-05-24T12:42:13.994Z,2.70
2023-05-24T12:44:42.990Z,2.10
2023-05-24T12:47:11.963Z,2.80
2023-05-24T12:49:40.252Z,1.90
2023-05-24T12:52:08.492Z,2.60
2023-05-24T12:54:36.696Z,2.20
2023-05-24T12:59:34.062Z,2.10
2023-05-24T13:02:02.573Z,2.30
2023-05-24T13:04:33.901Z,2.90
2023-05-24T13:07:03.817Z,2.50
2023-05-24T13:09:33.451Z,2.60
2023-05-24T13:12:02.168Z,2.10
2023-05-24T13:14:30.633Z,2.20
2023-05-24T13:16:59.337Z,2.00
2023-05-24T13:19:27.750Z,2.50
2023-05-24T13:21:55.854Z,2.40
2023-05-24T13:24:24.379Z,2.00
2023-05-24T13:26:54.633Z,2.40
2023-05-24T13:31:54.758Z,2.20
2023-05-24T13:34:25.999Z,2.40
2023-05-24T13:36:54.880Z,2.40
2023-05-24T13:39:23.927Z,2.20
2023-05-24T13:41:52.444Z,2.00
2023-05-24T13:44:21.554Z,2.40
2023-05-24T13:46:49.816Z,2.50
2023-05-24T13:49:18.519Z,2.40
2023-05-24T13:51:47.340Z,2.50
2023-05-24T13:54:16.579Z,2.00
2023-05-24T13:56:45.148Z,1.80
2023-05-24T13:59:13.909Z,2.10
2023-05-24T14:01:42.789Z,1.80
2023-05-24T14:04:11.460Z,2.00
2023-05-24T14:06:39.696Z,2.10
2023-05-24T14:11:37.223Z,2.20
2023-05-24T14:16:37.259Z,2.00
2023-05-24T14:19:05.816Z,2.10
2023-05-24T14:21:34.127Z,2.10
2023-05-24T14:24:02.276Z,2.20
2023-05-24T14:28:59.478Z,1.80
2023-05-24T14:31:27.921Z,2.10
2023-05-24T14:33:56.018Z,1.80
2023-05-24T14:36:24.145Z,1.90
2023-05-24T14:41:20.685Z,2.10
2023-05-24T14:46:16.862Z,2.00
2023-05-24T14:51:13.061Z,1.90
2023-05-24T14:53:41.380Z,1.70
2023-05-24T14:56:10.229Z,1.60
2023-05-24T14:58:38.430Z,2.00
2023-05-24T15:03:36.082Z,2.10
2023-05-24T15:06:05.655Z,1.70
2023-05-24T15:08:35.247Z,1.70
2023-05-24T15:11:03.535Z,1.70
2023-05-24T15:13:31.755Z,2.30
2023-05-24T15:18:31.682Z,2.00
2023-05-24T15:20:59.984Z,1.80
2023-05-24T15:23:28.723Z,2.30
2023-05-24T15:25:56.997Z,1.80
2023-05-24T15:30:55.194Z,1.80
2023-05-24T15:33:23.584Z,1.70
2023-05-24T15:35:51.769Z,1.80
2023-05-24T15:38:19.986Z,1.90
2023-05-24T15:40:48.908Z,3.00
2023-05-24T15:43:20.336Z,2.10
2023-05-24T15:45:49.074Z,2.20
2023-05-24T15:48:17.277Z,2.40
2023-05-24T15:51:03.733Z,1.90
2023-05-24T15:53:33.894Z,2.10
2023-05-24T15:58:30.230Z,1.90
2023-05-24T16:03:26.717Z,2.30
2023-05-24T16:05:55.085Z,2.30
2023-05-24T16:08:28.186Z,1.80
2023-05-24T16:10:57.011Z,2.20
2023-05-24T16:13:25.882Z,1.80
2023-05-24T16:15:54.146Z,2.20
2023-05-24T16:18:23.187Z,2.10
2023-05-24T16:20:52.749Z,1.70
2023-05-24T16:23:23.417Z,2.10
2023-05-24T16:25:51.930Z,2.20
2023-05-24T16:28:24.846Z,1.90
2023-05-24T16:30:56.178Z,2.50
2023-05-24T16:33:25.388Z,2.30
2023-05-24T16:35:56.933Z,2.30
2023-05-24T16:38:26.252Z,2.50
2023-05-24T16:40:54.882Z,2.00
2023-05-24T16:43:23.113Z,1.90
2023-05-24T16:48:21.858Z,2.20
2023-05-24T16:50:51.978Z,1.90
2023-05-24T16:53:23.288Z,1.60
2023-05-24T16:55:54.199Z,1.90
2023-05-24T16:58:23.946Z,2.20
2023-05-24T17:00:54.558Z,2.10
2023-05-24T17:03:28.729Z,1.80
2023-05-24T17:06:03.459Z,1.70
2023-05-24T17:08:36.870Z,1.90
2023-05-24T17:11:05.852Z,1.80
2023-05-24T17:13:34.501Z,1.80
2023-05-24T17:16:03.918Z,1.90
2023-05-24T17:18:32.189Z,2.10
2023-05-24T17:21:02.079Z,1.80
2023-05-24T17:23:34.999Z,1.80
2023-05-24T17:26:04.483Z,1.80
2023-05-24T17:28:35.653Z,2.20
2023-05-24T17:31:04.496Z,2.00
2023-05-24T17:33:32.753Z,2.30
2023-05-24T17:36:06.455Z,1.70
2023-05-24T17:38:37.644Z,3.20
2023-05-24T17:41:09.315Z,3.10
2023-05-24T17:43:39.256Z,3.30
2023-05-24T17:46:07.822Z,3.10
2023-05-24T17:48:37.851Z,2.90
2023-05-24T17:51:08.480Z,4.60
2023-05-24T17:53:38.411Z,3.70
2023-05-24T17:56:08.015Z,4.00
2023-05-24T17:58:37.240Z,3.20
2023-05-24T18:01:07.653Z,3.60
2023-05-24T18:03:37.582Z,3.50
2023-05-24T18:06:07.539Z,3.70
2023-05-24T18:08:38.468Z,3.40
2023-05-24T18:11:11.310Z,3.30
2023-05-24T18:13:42.059Z,2.80
2023-05-24T18:16:11.732Z,2.40
2023-05-24T18:18:40.165Z,3.10
2023-05-24T18:23:38.534Z,4.60
2023-05-24T18:26:11.731Z,5.70
2023-05-24T18:28:42.270Z,7.20
2023-05-24T18:31:10.684Z,6.00
2023-05-24T18:33:39.046Z,7.00
2023-05-24T18:36:07.917Z,7.30
2023-05-24T18:38:37.072Z,4.90
2023-05-24T18:41:09.617Z,5.20
2023-05-24T18:43:38.414Z,4.50
2023-05-24T18:46:06.763Z,5.10
2023-05-24T18:48:34.959Z,5.00
2023-05-24T18:51:03.378Z,5.50
2023-05-24T18:53:31.501Z,4.90
2023-05-24T18:55:59.619Z,4.60
2023-05-24T18:58:27.933Z,5.10
2023-05-24T19:03:25.052Z,5.00
2023-05-24T19:05:53.403Z,5.70
2023-05-24T19:08:21.518Z,4.70
2023-05-24T19:10:49.851Z,6.60
2023-05-24T19:15:46.469Z,6.00
2023-05-24T19:18:14.703Z,6.50
2023-05-24T19:20:43.348Z,5.90
2023-05-24T19:23:11.544Z,5.90
2023-05-24T19:25:42.257Z,7.10
2023-05-24T19:28:11.191Z,7.60
2023-05-24T19:30:39.732Z,8.50
2023-05-24T19:33:08.010Z,7.20
2023-05-24T19:38:05.278Z,7.80
2023-05-24T19:40:33.417Z,8.10
2023-05-24T19:43:01.746Z,7.80
2023-05-24T19:45:29.940Z,8.40
2023-05-24T19:47:58.159Z,6.30
2023-05-24T19:52:59.215Z,6.50
2023-05-24T19:55:27.442Z,6.60
2023-05-24T19:57:55.565Z,6.50
2023-05-24T20:00:23.790Z,8.20
2023-05-24T20:05:21.231Z,9.00
2023-05-24T20:07:49.445Z,8.40
2023-05-24T20:10:17.662Z,8.70
2023-05-24T20:12:45.984Z,6.80
2023-05-24T20:15:17.634Z,7.90
2023-05-24T20:17:46.066Z,6.20
2023-05-24T20:20:14.455Z,6.00
2023-05-24T20:22:42.781Z,5.10
2023-05-24T20:25:11.509Z,6.60
2023-05-24T20:27:42.130Z,5.40
2023-05-24T20:30:11.572Z,4.90
2023-05-24T20:32:39.857Z,8.30
2023-05-24T20:35:09.246Z,12.60
2023-05-24T20:37:38.130Z,6.80
2023-05-24T20:40:07.611Z,4.10
2023-05-24T20:42:35.968Z,4.60
2023-05-24T20:45:04.585Z,7.30
2023-05-24T20:47:32.730Z,9.40
2023-05-24T20:50:00.943Z,8.20
2023-05-24T20:54:57.373Z,9.40
2023-05-24T20:57:25.489Z,8.50
2023-05-24T20:59:53.811Z,8.10
2023-05-24T21:02:22.093Z,7.50
2023-05-24T21:04:50.856Z,6.90
2023-05-24T21:09:47.100Z,6.70
2023-05-24T21:12:15.312Z,5.90
2023-05-24T21:14:44.241Z,4.90
2023-05-24T21:17:12.723Z,5.20
2023-05-24T21:19:41.682Z,5.40
2023-05-24T21:22:09.897Z,4.90
2023-05-24T21:24:38.526Z,4.70
2023-05-24T21:27:08.251Z,4.20
2023-05-24T21:29:38.273Z,4.70
2023-05-24T21:32:06.491Z,4.80
2023-05-24T21:34:35.928Z,4.30
2023-05-24T21:37:05.232Z,4.60
2023-05-24T21:39:33.398Z,4.40
2023-05-24T21:42:02.586Z,4.00
2023-05-24T21:44:30.831Z,4.10
2023-05-24T21:49:27.847Z,4.40
2023-05-24T21:51:55.984Z,5.10
2023-05-24T21:54:24.212Z,5.30
2023-05-24T21:56:52.422Z,5.20
2023-05-24T21:59:21.626Z,4.50
2023-05-24T22:01:49.752Z,5.40
2023-05-24T22:04:18.138Z,5.40
2023-05-24T22:06:46.704Z,4.60
2023-05-24T22:11:42.940Z,5.00
2023-05-24T22:14:11.252Z,4.90
2023-05-24T22:16:39.436Z,4.90
2023-05-24T22:19:16.626Z,5.90
2023-05-24T22:21:50.401Z,4.80
2023-05-24T22:24:18.590Z,5.60
2023-05-24T22:26:47.205Z,5.50
2023-05-24T22:29:16.116Z,5.20
2023-05-24T22:31:44.297Z,4.50
2023-05-24T22:34:13.578Z,5.50
2023-05-24T22:36:41.805Z,5.00
2023-05-24T22:39:10.220Z,5.80
2023-05-24T22:44:06.370Z,4.80
2023-05-24T22:46:34.605Z,4.30
2023-05-24T22:49:05.929Z,4.50
2023-05-24T22:51:34.141Z,5.00
2023-05-24T22:54:02.355Z,4.80
2023-05-24T22:56:32.487Z,5.10
2023-05-24T22:59:00.598Z,4.70
2023-05-24T23:01:28.799Z,4.10
2023-05-24T23:04:07.745Z,5.00
2023-05-24T23:06:45.767Z,5.20
2023-05-24T23:09:14.257Z,5.00
2023-05-24T23:14:11.736Z,4.90
2023-05-24T23:16:46.037Z,4.10
2023-05-24T23:19:19.072Z,4.70
2023-05-24T23:21:47.697Z,4.80
2023-05-24T23:24:16.169Z,4.70
2023-05-24T23:26:44.435Z,4.60
2023-05-24T23:29:12.712Z,5.10
2023-05-24T23:34:09.394Z,5.50
2023-05-24T23:36:37.520Z,5.60
2023-05-24T23:39:06.347Z,6.20
2023-05-24T23:41:34.563Z,5.60
2023-05-24T23:44:02.678Z,5.00
2023-05-24T23:46:30.871Z,5.20
2023-05-24T23:48:59.225Z,4.90
2023-05-24T23:51:27.348Z,5.30
2023-05-24T23:53:55.666Z,4.60
2023-05-24T23:56:23.785Z,4.80
2023-05-24T23:58:51.908Z,4.20
